Time;durP1;ratioP1;P1;durP2;ratioP2;P2;SDS_P1;SDS_P2;PMS_P1;PMS_P2;Temp;Humidity;BMP_temperature;BMP_pressure;BME280_temperature;BME280_humidity;BME280_pressure;Samples;Min_cycle;Max_cycle;Signal;HPM_P1;HPM_P2
2023/09/06 00:00:17;;;;;;;6.95;5.47;;;13.50;99.90;;;;;;4936334;29;20052;-84
2023/09/06 00:02:43;;;;;;;6.28;5.07;;;13.50;99.90;;;;;;4947112;29;20339;-83
2023/09/06 00:05:08;;;;;;;5.95;5.05;;;13.50;99.90;;;;;;4935076;29;20027;-81
2023/09/06 00:07:34;;;;;;;6.53;5.07;;;13.50;99.90;;;;;;4937970;29;20032;-84
2023/09/06 00:10:00;;;;;;;7.28;5.43;;;13.40;99.90;;;;;;4936562;29;20091;-84
2023/09/06 00:12:26;;;;;;;5.43;4.90;;;13.50;99.90;;;;;;4943645;29;20020;-87
2023/09/06 00:14:52;;;;;;;6.18;5.07;;;13.40;99.90;;;;;;4941132;29;20035;-89
2023/09/06 00:17:17;;;;;;;6.63;5.38;;;13.40;99.90;;;;;;4941285;29;20036;-84
2023/09/06 00:19:43;;;;;;;6.60;5.53;;;13.40;99.90;;;;;;4941124;29;20119;-83
2023/09/06 00:22:09;;;;;;;9.73;5.47;;;13.40;99.90;;;;;;4929046;29;20102;-83
2023/09/06 00:24:34;;;;;;;6.65;5.07;;;13.40;99.90;;;;;;4954624;28;20044;-81
2023/09/06 00:27:03;;;;;;;6.57;5.22;;;13.40;99.90;;;;;;4943196;29;20034;-86
2023/09/06 00:29:30;;;;;;;6.07;5.07;;;13.40;99.90;;;;;;4957481;28;20637;-83
2023/09/06 00:31:58;;;;;;;7.15;4.80;;;13.40;99.90;;;;;;4944521;29;20043;-84
2023/09/06 00:34:24;;;;;;;5.88;4.90;;;13.50;99.90;;;;;;4935408;29;20120;-86
2023/09/06 00:36:49;;;;;;;7.05;4.25;;;13.50;99.90;;;;;;4938849;29;20088;-88
2023/09/06 00:39:16;;;;;;;6.45;4.78;;;13.40;99.90;;;;;;4936382;29;20123;-83
2023/09/06 00:41:43;;;;;;;5.78;4.80;;;13.40;99.90;;;;;;4940313;29;20099;-83
2023/09/06 00:44:09;;;;;;;6.22;4.82;;;13.30;99.90;;;;;;4949388;28;20039;-83
2023/09/06 00:46:36;;;;;;;5.72;4.90;;;13.30;99.90;;;;;;4936840;29;20062;-83
2023/09/06 00:49:02;;;;;;;5.68;5.13;;;13.30;99.90;;;;;;4936120;29;20055;-80
2023/09/06 00:51:28;;;;;;;5.72;4.80;;;13.20;99.90;;;;;;4940272;29;20027;-81
2023/09/06 00:54:00;;;;;;;6.38;5.30;;;13.10;99.90;;;;;;4949033;29;20499;-87
2023/09/06 00:56:26;;;;;;;5.45;4.78;;;13.10;99.90;;;;;;4938022;29;20449;-82
2023/09/06 00:59:12;;;;;;;5.70;4.65;;;13.10;99.90;;;;;;4934485;29;20128;-83
2023/09/06 01:01:38;;;;;;;5.88;5.00;;;13.00;99.90;;;;;;4931233;29;20618;-83
2023/09/06 01:04:04;;;;;;;5.80;4.63;;;13.00;99.90;;;;;;4941414;29;20064;-83
2023/09/06 01:06:33;;;;;;;9.15;5.32;;;12.90;99.90;;;;;;4938272;29;20035;-82
2023/09/06 01:09:03;;;;;;;7.82;5.18;;;12.90;99.90;;;;;;4935016;29;20040;-83
2023/09/06 01:11:29;;;;;;;5.10;4.57;;;12.90;99.90;;;;;;4950437;29;20091;-85
2023/09/06 01:13:58;;;;;;;5.53;4.82;;;12.80;99.90;;;;;;4945265;29;20115;-80
2023/09/06 01:16:40;;;;;;;6.38;5.30;;;12.80;99.90;;;;;;4937029;29;20492;-85
2023/09/06 01:19:08;;;;;;;6.43;5.10;;;12.80;99.90;;;;;;4930845;29;20582;-82
2023/09/06 01:21:38;;;;;;;6.70;5.35;;;12.80;99.90;;;;;;4927522;28;20040;-84
2023/09/06 01:24:05;;;;;;;5.20;4.65;;;12.70;99.90;;;;;;4922320;29;20036;-80
2023/09/06 01:26:35;;;;;;;6.07;4.80;;;12.70;99.90;;;;;;4947067;29;20035;-84
2023/09/06 01:29:01;;;;;;;8.05;4.82;;;12.70;99.90;;;;;;4941404;29;20055;-83
2023/09/06 01:31:27;;;;;;;6.40;4.88;;;12.70;99.90;;;;;;4950857;28;20664;-79
2023/09/06 01:33:53;;;;;;;5.45;4.65;;;12.70;99.90;;;;;;4940854;28;20688;-81
2023/09/06 01:36:19;;;;;;;5.90;4.82;;;12.70;99.90;;;;;;4941141;29;20035;-83
2023/09/06 01:38:45;;;;;;;6.82;5.60;;;12.70;99.90;;;;;;4952521;29;20047;-84
2023/09/06 01:41:11;;;;;;;8.20;5.80;;;12.60;99.90;;;;;;4937391;29;20051;-83
2023/09/06 01:43:38;;;;;;;6.47;5.30;;;12.60;99.90;;;;;;4933420;29;20035;-84
2023/09/06 01:46:03;;;;;;;6.10;5.03;;;12.60;99.90;;;;;;4933209;29;20311;-83
2023/09/06 01:48:29;;;;;;;7.10;4.40;;;12.60;99.90;;;;;;4938381;29;20114;-84
2023/09/06 01:50:55;;;;;;;5.15;4.65;;;12.60;99.90;;;;;;4936075;29;20110;-85
2023/09/06 01:53:22;;;;;;;6.60;5.35;;;12.60;99.90;;;;;;4943484;28;20118;-85
2023/09/06 01:55:48;;;;;;;5.88;4.65;;;12.60;99.90;;;;;;4936342;29;20500;-82
2023/09/06 01:58:14;;;;;;;14.48;5.78;;;12.60;99.90;;;;;;4933267;29;20034;-82
2023/09/06 02:00:40;;;;;;;8.63;5.00;;;12.50;99.90;;;;;;4937490;29;20122;-82
2023/09/06 02:03:09;;;;;;;8.98;4.95;;;12.50;99.90;;;;;;4941361;29;20118;-81
2023/09/06 02:05:36;;;;;;;9.63;5.65;;;12.50;99.90;;;;;;4951680;29;20103;-84
2023/09/06 02:08:04;;;;;;;6.53;5.03;;;12.50;99.90;;;;;;4927758;29;20105;-82
2023/09/06 02:10:29;;;;;;;6.13;5.43;;;12.50;99.90;;;;;;4937671;29;20107;-83
2023/09/06 02:12:55;;;;;;;5.60;4.95;;;12.50;99.90;;;;;;4938634;28;20079;-83
2023/09/06 02:15:23;;;;;;;6.07;5.40;;;12.50;99.90;;;;;;4950489;28;20158;-81
2023/09/06 02:17:48;;;;;;;5.38;4.45;;;12.50;99.90;;;;;;4934398;29;20023;-82
2023/09/06 02:20:20;;;;;;;7.03;5.20;;;12.40;99.90;;;;;;4934807;29;20177;-81
2023/09/06 02:22:51;;;;;;;10.38;5.38;;;12.40;99.90;;;;;;4924874;29;20035;-84
2023/09/06 02:25:21;;;;;;;7.35;5.43;;;12.40;99.90;;;;;;4937215;29;20031;-82
2023/09/06 02:27:48;;;;;;;5.80;5.00;;;12.40;99.90;;;;;;4932918;29;20036;-82
2023/09/06 02:30:14;;;;;;;7.50;5.07;;;12.30;99.90;;;;;;4937312;29;20031;-87
2023/09/06 02:32:40;;;;;;;6.85;5.85;;;12.30;99.90;;;;;;4936303;29;20563;-83
2023/09/06 02:35:07;;;;;;;6.10;5.13;;;12.20;99.90;;;;;;4932309;29;20048;-82
2023/09/06 02:37:36;;;;;;;7.15;5.50;;;12.20;99.90;;;;;;4933163;29;20397;-81
2023/09/06 02:40:07;;;;;;;6.85;5.18;;;12.20;99.90;;;;;;4931507;29;20110;-83
2023/09/06 02:42:36;;;;;;;6.65;5.47;;;12.20;99.90;;;;;;4917737;29;20032;-82
2023/09/06 02:45:05;;;;;;;7.47;6.03;;;12.20;99.90;;;;;;4933393;29;20484;-84
2023/09/06 02:47:30;;;;;;;7.82;5.47;;;12.10;99.90;;;;;;4907551;29;20157;-83
2023/09/06 02:49:56;;;;;;;6.72;5.95;;;12.10;99.90;;;;;;4933826;29;20036;-83
2023/09/06 02:52:28;;;;;;;8.43;5.75;;;12.10;99.90;;;;;;4933385;29;20031;-81
2023/09/06 02:54:59;;;;;;;7.90;6.45;;;12.10;99.90;;;;;;4941253;28;20084;-83
2023/09/06 02:57:26;;;;;;;8.05;5.80;;;12.10;99.90;;;;;;4930297;29;20044;-82
2023/09/06 02:59:53;;;;;;;7.07;6.10;;;12.10;99.90;;;;;;4946466;29;20062;-83
2023/09/06 03:02:20;;;;;;;6.80;6.07;;;12.00;99.90;;;;;;4951089;28;20090;-84
2023/09/06 03:04:46;;;;;;;8.43;6.00;;;12.00;99.90;;;;;;4908122;29;20039;-85
2023/09/06 03:07:15;;;;;;;8.00;6.35;;;11.90;99.90;;;;;;4932426;29;20031;-81
2023/09/06 03:09:42;;;;;;;7.05;6.03;;;11.90;99.90;;;;;;4936113;29;20099;-83
2023/09/06 03:12:11;;;;;;;8.60;6.70;;;11.90;99.90;;;;;;4937683;29;20050;-83
2023/09/06 03:14:44;;;;;;;9.57;6.80;;;11.80;99.90;;;;;;4934315;28;20079;-80
2023/09/06 03:17:11;;;;;;;8.10;6.25;;;11.80;99.90;;;;;;4930054;29;20042;-84
2023/09/06 03:19:41;;;;;;;8.95;7.15;;;11.80;99.90;;;;;;4931551;29;20039;-81
2023/09/06 03:22:12;;;;;;;7.72;6.22;;;11.80;99.90;;;;;;4922817;29;20088;-82
2023/09/06 03:24:40;;;;;;;10.35;6.72;;;11.80;99.90;;;;;;4932892;29;20118;-85
2023/09/06 03:27:07;;;;;;;10.20;7.43;;;11.80;99.90;;;;;;4933163;29;20032;-83
2023/09/06 03:29:37;;;;;;;6.68;5.85;;;11.80;99.90;;;;;;4913969;29;20044;-82
2023/09/06 03:32:10;;;;;;;7.75;6.20;;;11.80;99.90;;;;;;4925530;29;20040;-81
2023/09/06 03:34:41;;;;;;;9.40;7.10;;;11.80;99.90;;;;;;4927935;29;20055;-82
2023/09/06 03:37:28;;;;;;;8.73;6.88;;;11.80;99.90;;;;;;4926874;29;20050;-84
2023/09/06 03:39:55;;;;;;;8.60;6.35;;;11.70;99.90;;;;;;4932279;29;20031;-80
2023/09/06 03:42:23;;;;;;;7.03;5.78;;;11.70;99.90;;;;;;4947322;28;20028;-80
2023/09/06 03:44:49;;;;;;;7.88;5.90;;;11.70;99.90;;;;;;4942681;29;20377;-80
2023/09/06 03:47:16;;;;;;;7.93;5.30;;;11.70;99.90;;;;;;4918144;29;20059;-84
2023/09/06 03:49:43;;;;;;;8.20;5.55;;;11.70;99.90;;;;;;4935972;29;20028;-82
2023/09/06 03:52:10;;;;;;;8.15;5.85;;;11.60;99.90;;;;;;4945452;29;20031;-78
2023/09/06 03:54:38;;;;;;;7.68;6.47;;;11.60;99.90;;;;;;4936168;29;20039;-80
2023/09/06 03:57:05;;;;;;;8.18;6.97;;;11.60;99.90;;;;;;4920542;29;20032;-83
2023/09/06 03:59:35;;;;;;;7.88;5.90;;;11.50;99.90;;;;;;4933440;29;20614;-80
2023/09/06 04:02:08;;;;;;;8.95;6.22;;;11.50;99.90;;;;;;4940224;29;20095;-84
2023/09/06 04:04:34;;;;;;;6.95;5.85;;;11.50;99.90;;;;;;4952531;28;20036;-83
2023/09/06 04:07:02;;;;;;;8.45;6.70;;;11.50;99.90;;;;;;4935999;29;20572;-82
2023/09/06 04:09:32;;;;;;;7.28;5.90;;;11.50;99.90;;;;;;4949446;29;20020;-82
2023/09/06 04:11:58;;;;;;;8.15;5.78;;;11.40;99.90;;;;;;4939897;29;20043;-83
2023/09/06 04:14:24;;;;;;;7.60;5.70;;;11.40;99.90;;;;;;4939058;29;20024;-83
2023/09/06 04:16:53;;;;;;;6.03;5.40;;;11.40;99.90;;;;;;4942173;29;20042;-84
2023/09/06 04:19:20;;;;;;;7.32;5.97;;;11.40;99.90;;;;;;4923044;29;20070;-82
2023/09/06 04:21:48;;;;;;;6.35;5.75;;;11.40;99.90;;;;;;4943496;28;20526;-82
2023/09/06 04:24:15;;;;;;;7.70;5.80;;;11.40;99.90;;;;;;4919054;29;20035;-78
2023/09/06 04:26:41;;;;;;;6.82;5.50;;;11.40;99.90;;;;;;4933315;29;20493;-83
2023/09/06 04:29:07;;;;;;;7.15;5.72;;;11.30;99.90;;;;;;4933602;29;20043;-83
2023/09/06 04:31:33;;;;;;;8.77;6.25;;;11.30;99.90;;;;;;4923746;29;20047;-83
2023/09/06 04:34:01;;;;;;;8.25;6.00;;;11.30;99.90;;;;;;4940253;29;20087;-87
2023/09/06 04:36:28;;;;;;;7.35;6.00;;;11.30;99.90;;;;;;4935811;29;20039;-83
2023/09/06 04:39:01;;;;;;;8.93;6.80;;;11.20;99.90;;;;;;4951262;29;20078;-82
2023/09/06 04:41:31;;;;;;;8.82;6.78;;;11.20;99.90;;;;;;4957996;28;20047;-87
2023/09/06 04:44:00;;;;;;;9.57;6.75;;;11.20;99.90;;;;;;4935468;29;20485;-82
2023/09/06 04:46:27;;;;;;;9.93;6.95;;;11.20;99.90;;;;;;4929328;29;20040;-83
2023/09/06 04:48:55;;;;;;;9.63;6.38;;;11.20;99.90;;;;;;4949718;29;20032;-83
2023/09/06 04:51:21;;;;;;;8.23;6.82;;;11.20;99.90;;;;;;4954473;28;20056;-81
2023/09/06 04:53:49;;;;;;;7.93;6.60;;;11.10;99.90;;;;;;4945036;29;20040;-83
2023/09/06 04:56:19;;;;;;;6.18;5.55;;;11.10;99.90;;;;;;4947810;28;20127;-83
2023/09/06 04:58:47;;;;;;;10.23;6.03;;;11.10;99.90;;;;;;4962814;28;20452;-82
2023/09/06 05:01:13;;;;;;;5.72;5.05;;;11.10;99.90;;;;;;4940314;29;20113;-85
2023/09/06 05:03:40;;;;;;;7.55;5.25;;;11.10;99.90;;;;;;4930535;29;20059;-83
2023/09/06 05:06:06;;;;;;;6.43;5.03;;;11.10;99.90;;;;;;4927359;29;20504;-84
2023/09/06 05:08:32;;;;;;;8.15;6.00;;;11.10;99.90;;;;;;4940882;29;20111;-81
2023/09/06 05:11:06;;;;;;;8.88;5.93;;;11.10;99.90;;;;;;4939698;29;20039;-82
2023/09/06 05:13:33;;;;;;;7.07;5.40;;;11.10;99.90;;;;;;4911643;29;20091;-83
2023/09/06 05:16:02;;;;;;;8.60;5.97;;;11.10;99.90;;;;;;4933091;29;20488;-83
2023/09/06 05:18:30;;;;;;;8.23;5.40;;;11.10;99.90;;;;;;4953671;28;20035;-86
2023/09/06 05:20:59;;;;;;;9.10;5.85;;;11.10;99.90;;;;;;4928013;29;20046;-84
2023/09/06 05:23:25;;;;;;;7.35;5.63;;;11.10;99.90;;;;;;4941277;29;20574;-85
2023/09/06 05:25:51;;;;;;;9.90;6.88;;;11.10;99.90;;;;;;4936731;29;20032;-82
2023/09/06 05:28:24;;;;;;;6.53;5.47;;;11.20;99.90;;;;;;4946105;29;20124;-83
2023/09/06 05:30:55;;;;;;;7.72;5.35;;;11.20;99.90;;;;;;4908402;29;20060;-83
2023/09/06 05:33:22;;;;;;;6.95;5.45;;;11.30;99.90;;;;;;4952164;28;20032;-81
2023/09/06 05:35:48;;;;;;;7.72;5.13;;;11.30;99.90;;;;;;4925714;29;20452;-82
2023/09/06 05:38:15;;;;;;;6.60;5.32;;;11.40;99.90;;;;;;4929620;29;20107;-82
2023/09/06 05:40:44;;;;;;;7.40;5.10;;;11.40;99.90;;;;;;4936656;29;20043;-82
2023/09/06 05:43:15;;;;;;;7.25;5.93;;;11.50;99.90;;;;;;4937006;29;20209;-82
2023/09/06 05:45:41;;;;;;;7.43;6.07;;;11.50;99.90;;;;;;4931593;29;20032;-83
2023/09/06 05:48:08;;;;;;;10.07;6.53;;;11.60;99.90;;;;;;4930412;29;20028;-83
2023/09/06 05:50:35;;;;;;;8.10;5.95;;;11.70;99.90;;;;;;4931966;29;20134;-83
2023/09/06 05:53:01;;;;;;;9.48;6.60;;;11.90;99.90;;;;;;4935620;29;20649;-83
2023/09/06 05:55:28;;;;;;;9.05;6.30;;;12.10;99.90;;;;;;4930442;29;20031;-83
2023/09/06 05:57:55;;;;;;;7.80;5.93;;;12.30;99.90;;;;;;4943507;29;20040;-81
2023/09/06 06:00:22;;;;;;;12.43;6.90;;;12.50;99.90;;;;;;4955649;28;20042;-81
2023/09/06 06:02:55;;;;;;;8.18;6.85;;;12.80;99.90;;;;;;4935641;29;20031;-81
2023/09/06 06:05:21;;;;;;;9.45;7.20;;;13.10;99.90;;;;;;4937803;29;20020;-83
2023/09/06 06:07:47;;;;;;;11.23;6.43;;;13.40;99.90;;;;;;4932602;29;20031;-82
2023/09/06 06:10:13;;;;;;;12.38;8.30;;;13.70;99.90;;;;;;4933812;28;20032;-83
2023/09/06 06:12:40;;;;;;;9.93;6.97;;;14.00;99.90;;;;;;4942087;29;20032;-84
2023/09/06 06:15:12;;;;;;;10.45;6.70;;;14.30;99.90;;;;;;4933011;29;20094;-81
2023/09/06 06:17:38;;;;;;;7.72;6.32;;;14.50;99.90;;;;;;4923705;29;20793;-85
2023/09/06 06:20:07;;;;;;;7.05;5.65;;;14.80;99.90;;;;;;4953602;28;20051;-86
2023/09/06 06:22:40;;;;;;;9.88;5.63;;;15.10;99.90;;;;;;4937761;29;20467;-82
2023/09/06 06:25:07;;;;;;;7.60;5.85;;;15.50;99.90;;;;;;4931949;29;20035;-82
2023/09/06 06:27:33;;;;;;;6.50;5.07;;;15.80;99.90;;;;;;4927151;29;20456;-82
2023/09/06 06:29:58;;;;;;;6.47;5.18;;;16.00;99.90;;;;;;4932775;29;20104;-82
2023/09/06 06:32:25;;;;;;;6.30;5.47;;;16.20;99.90;;;;;;4949897;29;20083;-83
2023/09/06 06:34:53;;;;;;;7.00;4.57;;;16.50;99.90;;;;;;4942012;29;20075;-81
2023/09/06 06:37:19;;;;;;;6.55;5.00;;;16.80;99.90;;;;;;4941097;29;20044;-83
2023/09/06 06:39:45;;;;;;;6.85;5.03;;;17.10;99.90;;;;;;4934773;29;20031;-82
2023/09/06 06:42:10;;;;;;;5.82;4.65;;;17.20;99.90;;;;;;4934270;29;20098;-83
2023/09/06 06:44:46;;;;;;;8.05;5.80;;;17.50;99.90;;;;;;4952814;28;20082;-83
2023/09/06 06:47:16;;;;;;;6.32;5.10;;;17.60;99.90;;;;;;4931674;29;20066;-83
2023/09/06 06:49:42;;;;;;;7.03;4.97;;;17.70;99.90;;;;;;4932285;29;20095;-82
2023/09/06 06:52:07;;;;;;;13.13;6.50;;;17.80;99.90;;;;;;4937252;29;20126;-81
2023/09/06 06:54:34;;;;;;;5.65;4.82;;;17.90;99.90;;;;;;4932770;29;20140;-80
2023/09/06 06:57:00;;;;;;;8.38;5.13;;;18.00;99.90;;;;;;4941359;29;20032;-82
2023/09/06 06:59:27;;;;;;;7.38;6.00;;;18.00;99.90;;;;;;4931043;29;20492;-81
2023/09/06 07:01:53;;;;;;;5.93;5.22;;;18.30;99.90;;;;;;4936836;29;20434;-80
2023/09/06 07:04:18;;;;;;;5.82;5.07;;;18.40;99.90;;;;;;4946982;29;20094;-83
2023/09/06 07:06:44;;;;;;;5.70;5.07;;;18.60;99.90;;;;;;4934647;29;20059;-82
2023/09/06 07:09:10;;;;;;;5.43;4.40;;;19.00;99.90;;;;;;4934930;29;20384;-80
2023/09/06 07:11:37;;;;;;;4.88;4.38;;;19.20;99.90;;;;;;4938101;29;20051;-84
2023/09/06 07:14:03;;;;;;;5.10;4.60;;;19.50;99.90;;;;;;4937342;29;20055;-81
2023/09/06 07:16:31;;;;;;;4.55;3.95;;;19.80;99.90;;;;;;4919980;29;20036;-81
2023/09/06 07:18:58;;;;;;;5.30;4.32;;;20.00;99.90;;;;;;4938666;29;20040;-86
2023/09/06 07:21:25;;;;;;;5.10;4.20;;;20.10;99.90;;;;;;4954429;28;20039;-81
2023/09/06 07:23:51;;;;;;;7.70;4.68;;;20.20;99.90;;;;;;4943866;28;20034;-85
2023/09/06 07:26:17;;;;;;;5.90;4.10;;;20.30;99.90;;;;;;4953047;28;20106;-81
2023/09/06 07:28:45;;;;;;;4.40;3.92;;;20.40;99.90;;;;;;4946175;29;20404;-84
2023/09/06 07:31:12;;;;;;;5.65;4.45;;;20.40;99.90;;;;;;4947425;29;20086;-84
2023/09/06 07:33:41;;;;;;;6.57;4.05;;;20.20;99.90;;;;;;4950357;29;20134;-81
2023/09/06 07:36:07;;;;;;;6.68;3.90;;;20.20;99.90;;;;;;4938146;29;20024;-86
2023/09/06 07:38:33;;;;;;;4.88;4.25;;;20.10;99.90;;;;;;4948368;29;20039;-83
2023/09/06 07:41:02;;;;;;;6.15;3.80;;;20.20;99.90;;;;;;4949045;28;20517;-83
2023/09/06 07:43:29;;;;;;;5.57;4.03;;;20.20;99.90;;;;;;4945357;29;20494;-86
2023/09/06 07:45:59;;;;;;;3.92;3.47;;;20.20;99.90;;;;;;4946898;29;20472;-83
2023/09/06 07:48:30;;;;;;;3.97;3.58;;;20.40;99.90;;;;;;4961039;28;20087;-85
2023/09/06 07:50:56;;;;;;;5.13;3.50;;;20.40;99.90;;;;;;4935747;29;20021;-82
2023/09/06 07:53:24;;;;;;;3.80;3.35;;;20.50;99.90;;;;;;4941523;29;20086;-84
2023/09/06 07:55:50;;;;;;;6.68;3.60;;;20.50;99.90;;;;;;4938624;29;20496;-80
2023/09/06 07:58:16;;;;;;;5.40;3.95;;;20.50;99.90;;;;;;4942496;29;20046;-87
2023/09/06 08:00:42;;;;;;;4.30;3.67;;;20.50;99.90;;;;;;4944711;29;20028;-84
2023/09/06 08:03:09;;;;;;;3.65;3.10;;;20.60;99.90;;;;;;4950600;29;20078;-82
2023/09/06 08:05:54;;;;;;;4.22;3.70;;;20.60;99.90;;;;;;4934658;29;20123;-82
2023/09/06 08:08:20;;;;;;;4.05;3.63;;;20.60;99.90;;;;;;4944178;29;20388;-81
2023/09/06 08:10:46;;;;;;;6.05;3.70;;;20.70;99.90;;;;;;4941053;29;20031;-83
2023/09/06 08:13:12;;;;;;;4.00;3.10;;;20.70;99.90;;;;;;4950859;28;20035;-83
2023/09/06 08:15:38;;;;;;;5.45;4.45;;;20.60;99.90;;;;;;4945466;29;20055;-85
2023/09/06 08:18:05;;;;;;;6.85;4.00;;;20.60;99.90;;;;;;4942932;29;20130;-83
2023/09/06 08:20:31;;;;;;;5.00;4.05;;;20.60;99.90;;;;;;4947380;28;20043;-82
2023/09/06 08:22:57;;;;;;;11.10;3.92;;;20.50;99.90;;;;;;4950468;29;20023;-78
2023/09/06 08:25:23;;;;;;;5.10;3.88;;;20.60;99.90;;;;;;4937915;29;20055;-82
2023/09/06 08:27:53;;;;;;;5.70;3.42;;;20.50;99.90;;;;;;4937973;29;20091;-86
2023/09/06 08:30:20;;;;;;;4.10;3.70;;;20.60;99.90;;;;;;4941027;29;20063;-81
2023/09/06 08:32:51;;;;;;;5.53;3.70;;;20.70;99.90;;;;;;4950715;29;20078;-85
2023/09/06 08:35:20;;;;;;;5.88;3.38;;;20.90;99.90;;;;;;4945669;28;20552;-82
2023/09/06 08:37:46;;;;;;;4.25;3.20;;;21.00;99.90;;;;;;4941364;29;20472;-83
2023/09/06 08:40:12;;;;;;;3.42;3.08;;;21.00;99.90;;;;;;4932230;29;20043;-83
2023/09/06 08:42:38;;;;;;;6.60;3.08;;;21.10;97.90;;;;;;4950828;28;20032;-82
2023/09/06 08:45:07;;;;;;;6.30;3.63;;;21.00;99.60;;;;;;4951022;29;20035;-84
2023/09/06 08:47:35;;;;;;;3.40;3.10;;;21.00;99.30;;;;;;4941719;29;20110;-80
2023/09/06 08:50:02;;;;;;;5.40;3.60;;;21.00;97.40;;;;;;4939419;29;20032;-82
2023/09/06 08:52:30;;;;;;;3.65;3.30;;;21.10;99.90;;;;;;4952432;29;20126;-81
2023/09/06 08:54:55;;;;;;;4.78;3.25;;;21.00;99.90;;;;;;4948031;28;20028;-87
2023/09/06 08:57:22;;;;;;;8.35;3.65;;;21.10;99.90;;;;;;4941040;29;20034;-84
2023/09/06 08:59:49;;;;;;;4.30;3.55;;;21.00;99.80;;;;;;4943090;29;20047;-85
2023/09/06 09:02:16;;;;;;;5.15;3.42;;;21.00;99.90;;;;;;4946730;29;20444;-86
2023/09/06 09:04:42;;;;;;;4.97;3.80;;;21.00;99.60;;;;;;4947424;28;20092;-84
2023/09/06 09:07:10;;;;;;;4.03;3.13;;;21.10;99.90;;;;;;4942209;29;20481;-85
2023/09/06 09:09:58;;;;;;;4.43;3.35;;;21.20;99.60;;;;;;4945725;29;20408;-84
2023/09/06 09:12:29;;;;;;;5.20;3.90;;;21.20;99.40;;;;;;4953495;29;20035;-82
2023/09/06 09:14:56;;;;;;;4.68;3.25;;;21.40;99.10;;;;;;4945496;29;20040;-82
2023/09/06 09:17:23;;;;;;;3.95;3.28;;;21.50;98.40;;;;;;4929447;29;20748;-84
2023/09/06 09:19:51;;;;;;;5.35;3.38;;;21.50;98.60;;;;;;4949516;28;20048;-85
2023/09/06 09:22:28;;;;;;;3.53;3.17;;;21.40;97.10;;;;;;4939368;29;20034;-82
2023/09/06 09:25:14;;;;;;;4.32;3.33;;;21.40;99.90;;;;;;4935122;29;20103;-82
2023/09/06 09:27:56;;;;;;;3.58;3.28;;;21.50;99.40;;;;;;4925611;29;20195;-81
2023/09/06 09:30:22;;;;;;;5.32;3.42;;;21.50;98.00;;;;;;4936345;29;20024;-83
2023/09/06 09:32:48;;;;;;;7.22;4.03;;;21.60;99.00;;;;;;4943951;29;20043;-84
2023/09/06 09:35:15;;;;;;;5.63;4.10;;;21.60;97.40;;;;;;4930665;29;20040;-83
2023/09/06 09:37:49;;;;;;;4.05;3.65;;;21.60;98.90;;;;;;4936355;29;20039;-81
2023/09/06 09:40:20;;;;;;;3.37;3.07;;;21.70;98.70;;;;;;4937605;29;20032;-81
2023/09/06 09:42:53;;;;;;;3.47;3.08;;;21.90;97.60;;;;;;4945284;29;20138;-84
2023/09/06 09:45:21;;;;;;;4.10;3.05;;;22.00;97.20;;;;;;4938085;29;20074;-84
2023/09/06 09:47:47;;;;;;;2.80;2.60;;;22.10;96.00;;;;;;4925141;29;20040;-83
2023/09/06 09:50:34;;;;;;;3.65;3.08;;;22.10;95.30;;;;;;4942271;29;20075;-82
2023/09/06 09:53:03;;;;;;;3.33;2.72;;;22.20;94.60;;;;;;4945962;29;20170;-84
2023/09/06 09:55:34;;;;;;;3.90;2.83;;;22.20;95.00;;;;;;4937541;29;20097;-83
2023/09/06 09:58:05;;;;;;;3.55;3.25;;;22.30;94.30;;;;;;4931176;29;20020;-85
2023/09/06 10:00:32;;;;;;;3.75;3.13;;;22.30;95.40;;;;;;4935952;29;20088;-80
2023/09/06 10:03:00;;;;;;;3.38;3.00;;;22.30;95.90;;;;;;4937354;29;20035;-84
2023/09/06 10:05:29;;;;;;;4.10;3.08;;;22.30;95.80;;;;;;4932504;29;20034;-83
2023/09/06 10:07:56;;;;;;;4.53;3.20;;;22.40;93.10;;;;;;4930146;29;20034;-84
2023/09/06 10:10:24;;;;;;;5.28;3.70;;;22.50;93.40;;;;;;4950729;28;20032;-85
2023/09/06 10:12:51;;;;;;;3.45;2.80;;;22.50;92.80;;;;;;4944492;29;20032;-83
2023/09/06 10:15:23;;;;;;;3.45;3.00;;;22.50;94.10;;;;;;4933620;29;20032;-83
2023/09/06 10:17:50;;;;;;;3.22;2.97;;;22.60;93.20;;;;;;4932507;29;20059;-85
2023/09/06 10:20:22;;;;;;;4.97;2.85;;;22.70;94.00;;;;;;4938776;29;20038;-84
2023/09/06 10:22:52;;;;;;;5.07;2.80;;;22.70;92.70;;;;;;4937363;29;20036;-83
2023/09/06 10:25:21;;;;;;;3.28;2.97;;;22.70;93.00;;;;;;4932439;29;20036;-82
2023/09/06 10:27:55;;;;;;;4.47;3.30;;;22.70;94.50;;;;;;4950193;29;20032;-82
2023/09/06 10:30:45;;;;;;;4.32;3.22;;;22.80;92.50;;;;;;4939838;29;20027;-82
2023/09/06 10:33:32;;;;;;;3.20;2.95;;;22.90;94.00;;;;;;4939339;29;20063;-84
2023/09/06 10:36:02;;;;;;;3.30;2.65;;;22.90;94.20;;;;;;4930497;29;20032;-81
2023/09/06 10:38:30;;;;;;;5.75;3.25;;;22.90;94.70;;;;;;4927598;29;20047;-82
2023/09/06 10:40:56;;;;;;;3.70;3.08;;;22.90;95.50;;;;;;4938375;29;20108;-80
2023/09/06 10:43:28;;;;;;;3.80;3.40;;;22.90;94.20;;;;;;4950496;29;20067;-86
2023/09/06 10:45:58;;;;;;;4.03;3.00;;;23.00;92.70;;;;;;4937303;29;20023;-85
2023/09/06 10:48:24;;;;;;;7.13;3.30;;;23.20;93.30;;;;;;4942616;29;20075;-81
2023/09/06 10:51:11;;;;;;;3.35;2.90;;;23.30;93.60;;;;;;4938501;29;20467;-82
2023/09/06 10:53:37;;;;;;;3.75;3.15;;;23.40;91.90;;;;;;4939621;29;20407;-83
2023/09/06 10:56:05;;;;;;;3.55;2.50;;;23.40;91.10;;;;;;4932253;29;20209;-81
2023/09/06 10:58:34;;;;;;;5.60;2.70;;;23.60;92.60;;;;;;4933884;29;20039;-82
2023/09/06 11:01:17;;;;;;;3.72;3.10;;;23.70;92.50;;;;;;4933996;29;20504;-82
2023/09/06 11:04:13;;;;;;;3.65;2.80;;;23.80;92.60;;;;;;4944178;29;20043;-83
2023/09/06 11:06:58;;;;;;;2.70;2.50;;;23.90;91.10;;;;;;4928405;29;20448;-84
2023/09/06 11:09:25;;;;;;;2.95;2.50;;;23.90;88.00;;;;;;4927502;29;20042;-82
2023/09/06 11:11:52;;;;;;;2.80;2.20;;;23.90;86.60;;;;;;4939750;29;20845;-82
2023/09/06 11:14:18;;;;;;;3.28;2.30;;;24.00;86.30;;;;;;4937963;28;20054;-83
2023/09/06 11:16:47;;;;;;;2.70;1.90;;;24.10;82.60;;;;;;4936879;29;20043;-84
2023/09/06 11:19:13;;;;;;;2.30;2.00;;;24.20;80.90;;;;;;4939732;29;20052;-83
2023/09/06 11:21:39;;;;;;;1.83;1.70;;;24.40;80.70;;;;;;4937995;29;20044;-83
2023/09/06 11:24:05;;;;;;;3.05;2.03;;;24.40;78.90;;;;;;4934153;29;20047;-83
2023/09/06 11:26:35;;;;;;;3.88;1.98;;;24.60;77.20;;;;;;4936529;29;20086;-83
2023/09/06 11:29:26;;;;;;;3.95;1.92;;;24.70;77.90;;;;;;4935220;29;20050;-87
2023/09/06 11:31:54;;;;;;;2.95;1.98;;;24.80;77.90;;;;;;4964746;28;20035;-85
2023/09/06 11:34:27;;;;;;;2.50;2.30;;;24.90;79.00;;;;;;4949562;29;20059;-83
2023/09/06 11:36:53;;;;;;;3.00;2.08;;;25.00;76.60;;;;;;4926846;29;20044;-85
2023/09/06 11:39:22;;;;;;;2.97;1.90;;;25.00;72.60;;;;;;4936131;29;20572;-84
2023/09/06 11:41:48;;;;;;;2.25;2.05;;;25.10;73.40;;;;;;4943769;29;20538;-83
2023/09/06 11:44:17;;;;;;;4.78;1.90;;;25.20;75.30;;;;;;4940588;29;20419;-82
2023/09/06 11:46:43;;;;;;;2.67;2.00;;;25.40;77.30;;;;;;4946732;28;20036;-82
2023/09/06 11:49:15;;;;;;;2.38;1.65;;;25.30;71.20;;;;;;4934188;29;20073;-82
2023/09/06 11:51:43;;;;;;;2.20;1.98;;;25.40;73.80;;;;;;4944802;29;20035;-82
2023/09/06 11:54:09;;;;;;;2.78;1.73;;;25.40;70.50;;;;;;4942315;29;20035;-83
2023/09/06 11:56:39;;;;;;;2.22;1.80;;;25.50;70.30;;;;;;4934065;29;20039;-83
2023/09/06 11:59:12;;;;;;;2.55;1.50;;;25.60;65.50;;;;;;4938774;29;20024;-83
2023/09/06 12:01:43;;;;;;;1.77;1.67;;;25.70;68.70;;;;;;4944822;29;20098;-83
2023/09/06 12:04:16;;;;;;;2.00;1.75;;;25.80;65.90;;;;;;4942186;29;20164;-84
2023/09/06 12:06:42;;;;;;;2.05;1.70;;;25.90;65.10;;;;;;4941739;28;20042;-81
2023/09/06 12:09:15;;;;;;;1.90;1.80;;;26.10;66.80;;;;;;4945064;29;20042;-85
2023/09/06 12:11:41;;;;;;;3.30;1.88;;;26.20;67.80;;;;;;4949517;29;20107;-84
2023/09/06 12:14:12;;;;;;;1.92;1.77;;;26.40;65.00;;;;;;4937543;29;20028;-82
2023/09/06 12:16:40;;;;;;;2.38;1.70;;;26.40;64.80;;;;;;4939859;29;20023;-83
2023/09/06 12:19:17;;;;;;;2.13;1.27;;;26.40;64.60;;;;;;4940794;29;20031;-83
2023/09/06 12:21:43;;;;;;;1.70;1.58;;;26.50;64.50;;;;;;4943264;29;20448;-82
2023/09/06 12:24:09;;;;;;;1.95;1.83;;;26.50;62.80;;;;;;4937909;29;20020;-82
2023/09/06 12:26:35;;;;;;;2.22;1.80;;;26.50;63.30;;;;;;4940900;28;20410;-83
2023/09/06 12:29:00;;;;;;;1.60;1.50;;;26.50;63.40;;;;;;4933516;29;20107;-82
2023/09/06 12:31:26;;;;;;;1.92;1.27;;;26.60;62.40;;;;;;4938161;29;20031;-81
2023/09/06 12:33:52;;;;;;;3.20;1.40;;;26.60;61.30;;;;;;4937860;29;20032;-84
2023/09/06 12:36:18;;;;;;;4.97;1.60;;;26.50;62.40;;;;;;4937731;29;20107;-83
2023/09/06 12:38:44;;;;;;;1.55;1.45;;;26.50;63.70;;;;;;4931966;29;20039;-83
2023/09/06 12:41:11;;;;;;;1.63;1.52;;;26.50;62.30;;;;;;4959619;28;20031;-82
2023/09/06 12:43:37;;;;;;;1.65;1.48;;;26.40;60.50;;;;;;4947791;29;20058;-83
2023/09/06 12:46:13;;;;;;;1.50;1.40;;;26.40;60.50;;;;;;4936606;29;20032;-85
2023/09/06 12:48:38;;;;;;;1.65;1.55;;;26.40;60.50;;;;;;4938532;29;20055;-84
2023/09/06 12:51:07;;;;;;;1.52;1.40;;;26.30;58.50;;;;;;4942049;29;20035;-81